Neva Corners, Wisconsin
Current Conditions -  °F | °C
As of 6:55 AM on Saturday 22 Nov 2014 (Local Time) from KAIG Reporting Station
Haze Haze  
Wind Chill: 20°   Ceiling: 700
Heat Index: 30°   Visibility: 4mi
Dew Point: 28°   Wind: 13mph
Humidity: 95%   Direction: 220°SW
Pressure: 29.81"   Gusts: NA
Location:  45.2445°N, 89.211°W
Report Text: KAIG 221255Z AUTO 22011KT 4SM BR OVC007 M01/M02 A2981 RMK AO2 T10131020
Loading
Personal Weather Stations






























Interactive Weather Map New forecast layout! Learn more

10-Day Weather Forecast

Advertisements
Track Severe Weather on mobile